Mermaid Express — H9PV — position and weather

sailwx.info

Track history (hours):
 
Tides and Currents Weather Stations Pressure Air Temp Water Temp Dewpoint Dewpoint Depression Visibility Wind Speed Wind Dir Waves Ship Positions

Mermaid Express

Last reported at 2015-Jan-25 15:33 UTC. Time now 2015-Jan-25 16:17 UTC.
Position N 37°53' W 008°53'.

Length 179 m; draft 7.5 m.

Type: Tanker. MMSI: 352866000.

Date/timePositionNaut miles runAvg speedWind from/ knotsBaromVisibWave heightAir tempDewpointWater temp
2015-Jan-25 15:33N 37°53' W 008°53'0 0.5
2015-Jan-25 14:33N 37°53' W 008°52'0 0.0
2015-Jan-25 13:33N 37°53' W 008°52'0 0.0
2015-Jan-25 12:33N 37°53' W 008°52'0 0.0
2015-Jan-25 11:33N 37°53' W 008°52'0 0.0
2015-Jan-25 10:30N 37°53' W 008°52'0 0.1
2015-Jan-25 09:33N 37°53' W 008°52'0 0.0
2015-Jan-25 08:33N 37°53' W 008°52'0 0.0
2015-Jan-25 07:33N 37°53' W 008°52'0 0.0
2015-Jan-25 06:33N 37°53' W 008°52'0 0.0
2015-Jan-25 05:33N 37°53' W 008°52'0 0.0
2015-Jan-25 04:33N 37°53' W 008°52'0 0.0
2015-Jan-25 03:34N 37°53' W 008°52'0 0.0
2015-Jan-25 02:33N 37°53' W 008°52'0 0.0
2015-Jan-25 01:33N 37°53' W 008°52'0 0.0
2015-Jan-25 00:33N 37°53' W 008°52'0 0.0
2015-Jan-24 23:33N 37°53' W 008°52'0 0.1
2015-Jan-24 22:33N 37°53' W 008°52'0 0.0
2015-Jan-24 21:33N 37°53' W 008°52'0 0.0
2015-Jan-24 20:33N 37°53' W 008°52'0 0.0
2015-Jan-24 19:33N 37°53' W 008°52'0 0.0
2015-Jan-24 18:33N 37°53' W 008°52'0 0.0
2015-Jan-24 17:33N 37°53' W 008°52'0 0.1
2015-Jan-24 16:33N 37°53' W 008°52'0 0.0
2015-Jan-24 15:33N 37°53' W 008°52'0 0.0
2015-Jan-24 14:33N 37°53' W 008°52'0 0.1
2015-Jan-24 13:32N 37°53' W 008°52'0 0.0
2015-Jan-24 12:33N 37°53' W 008°52'0 0.0
2015-Jan-24 11:33N 37°53' W 008°52'0 0.0
2015-Jan-24 10:33N 37°53' W 008°52'0 0.0
2015-Jan-24 09:33N 37°53' W 008°52'0 0.0
2015-Jan-24 08:33N 37°53' W 008°52'0 0.0
2015-Jan-24 07:33N 37°53' W 008°52'0 0.1
2015-Jan-24 06:33N 37°53' W 008°52'0 0.0
2015-Jan-24 05:33N 37°53' W 008°52'0 0.0
2015-Jan-24 04:33N 37°53' W 008°52'0 0.0
2015-Jan-24 03:33N 37°53' W 008°52'0 0.0
2015-Jan-24 02:33N 37°53' W 008°52'0 0.0
2015-Jan-24 01:33N 37°53' W 008°52'0 0.0
2015-Jan-24 00:33N 37°53' W 008°52'0 0.1
2015-Jan-23 23:33N 37°53' W 008°52'0 0.0
2015-Jan-23 22:33N 37°53' W 008°52'0 0.0
2015-Jan-23 21:33N 37°53' W 008°52'0 0.0
2015-Jan-23 20:33N 37°53' W 008°52'0 0.1
2015-Jan-23 19:33N 37°53' W 008°52'0 0.0
2015-Jan-23 18:33N 37°53' W 008°52'0 0.1
2015-Jan-23 17:33N 37°53' W 008°52'0 0.0
2015-Jan-23 16:33N 37°53' W 008°52'0 0.0
2015-Jan-23 15:33N 37°53' W 008°52'0 0.1
2015-Jan-23 14:33N 37°53' W 008°52'0 0.3
2015-Jan-23 13:33N 37°52' W 008°52'6 5.9
2015-Jan-23 12:33N 37°47' W 008°54'9 9.5
2015-Jan-23 11:33N 37°39' W 009°00'1111.0
2015-Jan-23 10:33N 37°30' W 009°10'195 8.5
2015-Jan-22 11:30N 35°58' W 005°36'9 9.1
2015-Jan-22 10:32N 36°01' W 005°26'7 7.5
2015-Jan-22 09:33N 36°08' W 005°23'0 0.5
2015-Jan-22 08:33N 36°08' W 005°22'0 0.0
2015-Jan-22 07:28N 36°08' W 005°22'0 0.0
2015-Jan-22 06:28N 36°08' W 005°22'0 0.0
2015-Jan-22 05:28N 36°08' W 005°22'0 0.0
2015-Jan-22 04:28N 36°08' W 005°22'0 0.0
2015-Jan-22 03:31N 36°08' W 005°22'0 0.0
2015-Jan-22 02:28N 36°08' W 005°22'0 0.0
2015-Jan-22 01:28N 36°08' W 005°22'0 0.0
2015-Jan-22 00:31N 36°08' W 005°22'0 0.0
2015-Jan-21 23:31N 36°08' W 005°22'0 0.0
2015-Jan-21 22:49N 36°08' W 005°22'0 0.1
2015-Jan-21 22:46N 36°08' W 005°22'0 0.1
2015-Jan-21 22:31N 36°08' W 005°22'0 0.0
2015-Jan-21 21:31N 36°08' W 005°22'0 0.0
2015-Jan-21 20:33N 36°08' W 005°22'0 0.0
2015-Jan-21 19:33N 36°08' W 005°22'0 0.0
2015-Jan-21 18:34N 36°08' W 005°22'0 0.0
2015-Jan-21 17:34N 36°08' W 005°22'0 0.0
2015-Jan-21 16:33N 36°08' W 005°22'0 0.0
2015-Jan-21 15:33N 36°08' W 005°22'0 0.0
2015-Jan-21 14:33N 36°08' W 005°22'0 0.2
2015-Jan-21 13:33N 36°08' W 005°22'0 0.0
2015-Jan-21 12:34N 36°08' W 005°22'0 0.1
2015-Jan-21 11:33N 36°08' W 005°22'0 0.1
2015-Jan-21 10:33N 36°08' W 005°22'6 5.5
2015-Jan-21 09:33N 36°02' W 005°21'6 6.5
2015-Jan-21 08:33N 35°58' W 005°27'  
Track history (hours):
 
Tides and Currents Weather Stations Pressure Air Temp Water Temp Dewpoint Dewpoint Depression Visibility Wind Speed Wind Dir Waves Ship Positions

Mermaid Express

Last reported at 2015-Jan-25 15:33 UTC. Time now 2015-Jan-25 16:17 UTC.
Position N 37°53' W 008°53'.

Length 179 m; draft 7.5 m.

Type: Tanker. MMSI: 352866000.

Date/timePositionNaut miles runAvg speedWind from/ knotsBaromVisibWave heightAir tempDewpointWater temp
2015-Jan-25 15:33N 37°53' W 008°53'0 0.5
2015-Jan-25 14:33N 37°53' W 008°52'0 0.0
2015-Jan-25 13:33N 37°53' W 008°52'0 0.0
2015-Jan-25 12:33N 37°53' W 008°52'0 0.0
2015-Jan-25 11:33N 37°53' W 008°52'0 0.0
2015-Jan-25 10:30N 37°53' W 008°52'0 0.1
2015-Jan-25 09:33N 37°53' W 008°52'0 0.0
2015-Jan-25 08:33N 37°53' W 008°52'0 0.0
2015-Jan-25 07:33N 37°53' W 008°52'0 0.0
2015-Jan-25 06:33N 37°53' W 008°52'0 0.0
2015-Jan-25 05:33N 37°53' W 008°52'0 0.0
2015-Jan-25 04:33N 37°53' W 008°52'0 0.0
2015-Jan-25 03:34N 37°53' W 008°52'0 0.0
2015-Jan-25 02:33N 37°53' W 008°52'0 0.0
2015-Jan-25 01:33N 37°53' W 008°52'0 0.0
2015-Jan-25 00:33N 37°53' W 008°52'0 0.0
2015-Jan-24 23:33N 37°53' W 008°52'0 0.1
2015-Jan-24 22:33N 37°53' W 008°52'0 0.0
2015-Jan-24 21:33N 37°53' W 008°52'0 0.0
2015-Jan-24 20:33N 37°53' W 008°52'0 0.0
2015-Jan-24 19:33N 37°53' W 008°52'0 0.0
2015-Jan-24 18:33N 37°53' W 008°52'0 0.0
2015-Jan-24 17:33N 37°53' W 008°52'0 0.1
2015-Jan-24 16:33N 37°53' W 008°52'0 0.0
2015-Jan-24 15:33N 37°53' W 008°52'0 0.0
2015-Jan-24 14:33N 37°53' W 008°52'0 0.1
2015-Jan-24 13:32N 37°53' W 008°52'0 0.0
2015-Jan-24 12:33N 37°53' W 008°52'0 0.0
2015-Jan-24 11:33N 37°53' W 008°52'0 0.0
2015-Jan-24 10:33N 37°53' W 008°52'0 0.0
2015-Jan-24 09:33N 37°53' W 008°52'0 0.0
2015-Jan-24 08:33N 37°53' W 008°52'0 0.0
2015-Jan-24 07:33N 37°53' W 008°52'0 0.1
2015-Jan-24 06:33N 37°53' W 008°52'0 0.0
2015-Jan-24 05:33N 37°53' W 008°52'0 0.0
2015-Jan-24 04:33N 37°53' W 008°52'0 0.0
2015-Jan-24 03:33N 37°53' W 008°52'0 0.0
2015-Jan-24 02:33N 37°53' W 008°52'0 0.0
2015-Jan-24 01:33N 37°53' W 008°52'0 0.0
2015-Jan-24 00:33N 37°53' W 008°52'0 0.1
2015-Jan-23 23:33N 37°53' W 008°52'0 0.0
2015-Jan-23 22:33N 37°53' W 008°52'0 0.0
2015-Jan-23 21:33N 37°53' W 008°52'0 0.0
2015-Jan-23 20:33N 37°53' W 008°52'0 0.1
2015-Jan-23 19:33N 37°53' W 008°52'0 0.0
2015-Jan-23 18:33N 37°53' W 008°52'0 0.1
2015-Jan-23 17:33N 37°53' W 008°52'0 0.0
2015-Jan-23 16:33N 37°53' W 008°52'0 0.0
2015-Jan-23 15:33N 37°53' W 008°52'0 0.1
2015-Jan-23 14:33N 37°53' W 008°52'0 0.3
2015-Jan-23 13:33N 37°52' W 008°52'6 5.9
2015-Jan-23 12:33N 37°47' W 008°54'9 9.5
2015-Jan-23 11:33N 37°39' W 009°00'1111.0
2015-Jan-23 10:33N 37°30' W 009°10'195 8.5
2015-Jan-22 11:30N 35°58' W 005°36'9 9.1
2015-Jan-22 10:32N 36°01' W 005°26'7 7.5
2015-Jan-22 09:33N 36°08' W 005°23'0 0.5
2015-Jan-22 08:33N 36°08' W 005°22'0 0.0
2015-Jan-22 07:28N 36°08' W 005°22'0 0.0
2015-Jan-22 06:28N 36°08' W 005°22'0 0.0
2015-Jan-22 05:28N 36°08' W 005°22'0 0.0
2015-Jan-22 04:28N 36°08' W 005°22'0 0.0
2015-Jan-22 03:31N 36°08' W 005°22'0 0.0
2015-Jan-22 02:28N 36°08' W 005°22'0 0.0
2015-Jan-22 01:28N 36°08' W 005°22'0 0.0
2015-Jan-22 00:31N 36°08' W 005°22'0 0.0
2015-Jan-21 23:31N 36°08' W 005°22'0 0.0
2015-Jan-21 22:49N 36°08' W 005°22'0 0.1
2015-Jan-21 22:46N 36°08' W 005°22'0 0.1
2015-Jan-21 22:31N 36°08' W 005°22'0 0.0
2015-Jan-21 21:31N 36°08' W 005°22'0 0.0
2015-Jan-21 20:33N 36°08' W 005°22'0 0.0
2015-Jan-21 19:33N 36°08' W 005°22'0 0.0
2015-Jan-21 18:34N 36°08' W 005°22'0 0.0
2015-Jan-21 17:34N 36°08' W 005°22'0 0.0
2015-Jan-21 16:33N 36°08' W 005°22'0 0.0
2015-Jan-21 15:33N 36°08' W 005°22'0 0.0
2015-Jan-21 14:33N 36°08' W 005°22'0 0.2
2015-Jan-21 13:33N 36°08' W 005°22'0 0.0
2015-Jan-21 12:34N 36°08' W 005°22'0 0.1
2015-Jan-21 11:33N 36°08' W 005°22'0 0.1
2015-Jan-21 10:33N 36°08' W 005°22'6 5.5
2015-Jan-21 09:33N 36°02' W 005°21'6 6.5
2015-Jan-21 08:33N 35°58' W 005°27'  

Dump ship's entire track history